createdAt,value
2023-05-04T00:00:52.630Z,58.70
2023-05-04T00:05:57.013Z,58.80
2023-05-04T00:11:01.435Z,58.70
2023-05-04T00:16:10.496Z,58.90
2023-05-04T00:21:15.442Z,58.80
2023-05-04T00:26:19.757Z,59.00
2023-05-04T00:31:26.093Z,59.00
2023-05-04T00:36:30.283Z,58.90
2023-05-04T00:41:34.628Z,58.80
2023-05-04T00:46:39.629Z,59.80
2023-05-04T00:51:44.030Z,60.70
2023-05-04T00:56:48.789Z,60.90
2023-05-04T01:01:53.017Z,60.60
2023-05-04T01:07:17.012Z,61.00
2023-05-04T01:12:35.417Z,60.50
2023-05-04T01:17:39.963Z,60.50
2023-05-04T01:22:45.679Z,60.50
2023-05-04T01:27:52.482Z,60.40
2023-05-04T01:32:59.389Z,60.50
2023-05-04T01:38:03.717Z,60.40
2023-05-04T01:43:11.739Z,60.50
2023-05-04T01:48:17.410Z,60.20
2023-05-04T01:53:21.642Z,60.30
2023-05-04T01:58:25.974Z,60.50
2023-05-04T02:03:31.999Z,60.50
2023-05-04T02:08:36.507Z,60.10
2023-05-04T02:13:40.853Z,59.00
2023-05-04T02:18:44.996Z,58.80
2023-05-04T02:23:50.292Z,58.30
2023-05-04T02:28:54.529Z,57.40
2023-05-04T02:33:58.911Z,56.60
2023-05-04T02:39:04.682Z,56.50
2023-05-04T02:44:11.179Z,56.60
2023-05-04T02:49:15.430Z,56.50
2023-05-04T02:54:19.555Z,56.00
2023-05-04T02:59:23.827Z,56.10
2023-05-04T03:04:28.054Z,56.10
2023-05-04T03:09:32.563Z,56.00
2023-05-04T03:14:36.803Z,56.70
2023-05-04T03:19:42.378Z,55.90
2023-05-04T03:24:47.649Z,55.80
2023-05-04T03:29:52.082Z,55.70
2023-05-04T03:34:57.348Z,55.60
2023-05-04T03:40:02.162Z,56.10
2023-05-04T03:45:07.630Z,56.40
2023-05-04T03:50:13.153Z,56.00
2023-05-04T03:55:17.370Z,55.90
2023-05-04T04:00:24.972Z,56.30
2023-05-04T04:05:33.813Z,56.30
2023-05-04T04:10:38.366Z,56.10
2023-05-04T04:15:45.998Z,56.60
2023-05-04T04:20:51.032Z,56.40
2023-05-04T04:25:55.165Z,56.40
2023-05-04T04:31:00.371Z,56.50
2023-05-04T04:36:06.043Z,56.60
2023-05-04T04:41:10.565Z,57.00
2023-05-04T04:46:14.939Z,56.70
2023-05-04T04:51:20.036Z,57.00
2023-05-04T04:56:25.210Z,57.30
2023-05-04T05:01:30.469Z,57.40
2023-05-04T05:06:34.802Z,57.00
2023-05-04T05:11:39.160Z,57.10
2023-05-04T05:16:45.214Z,56.70
2023-05-04T05:21:53.406Z,57.50
2023-05-04T05:26:58.702Z,57.60
2023-05-04T05:32:04.180Z,57.30
2023-05-04T05:37:08.432Z,57.40
2023-05-04T05:42:13.060Z,57.00
2023-05-04T05:47:17.914Z,57.30
2023-05-04T05:52:22.046Z,57.20
2023-05-04T05:57:26.325Z,57.60
2023-05-04T06:02:30.911Z,58.30
2023-05-04T06:07:35.059Z,58.60
2023-05-04T06:12:39.457Z,58.20
2023-05-04T06:17:43.867Z,57.90
2023-05-04T06:22:49.765Z,58.10
2023-05-04T06:27:54.721Z,58.60
2023-05-04T06:32:59.118Z,58.70
2023-05-04T06:38:04.896Z,58.10
2023-05-04T06:43:09.443Z,58.70
2023-05-04T06:48:14.476Z,58.80
2023-05-04T06:53:20.151Z,58.60
2023-05-04T06:58:24.199Z,58.30
2023-05-04T07:03:28.546Z,59.20
2023-05-04T07:08:33.493Z,58.30
2023-05-04T07:13:39.143Z,57.70
2023-05-04T07:18:43.176Z,57.90
2023-05-04T07:23:50.105Z,57.30
2023-05-04T07:28:54.541Z,56.90
2023-05-04T07:33:58.950Z,57.10
2023-05-04T07:39:03.712Z,57.10
2023-05-04T07:44:09.278Z,57.10
2023-05-04T07:49:13.410Z,57.50
2023-05-04T07:54:17.652Z,57.10
2023-05-04T08:05:40.639Z,57.00
2023-05-04T08:10:44.954Z,56.90
2023-05-04T08:15:49.913Z,56.80
2023-05-04T08:20:54.730Z,56.70
2023-05-04T08:25:58.900Z,56.60
2023-05-04T08:31:04.336Z,56.40
2023-05-04T08:36:09.975Z,56.20
2023-05-04T08:41:14.384Z,56.40
2023-05-04T08:46:18.866Z,57.20
2023-05-04T08:51:23.604Z,57.30
2023-05-04T08:56:28.144Z,59.00
2023-05-04T09:01:34.774Z,59.20
2023-05-04T09:06:39.250Z,59.20
2023-05-04T09:11:45.742Z,59.10
2023-05-04T09:16:50.199Z,59.80
2023-05-04T09:21:54.916Z,59.70
2023-05-04T09:27:19.019Z,60.00
2023-05-04T09:32:23.296Z,60.10
2023-05-04T09:37:27.499Z,60.30
2023-05-04T09:42:31.955Z,60.60
2023-05-04T09:47:41.324Z,60.50
2023-05-04T09:52:47.678Z,60.70
2023-05-04T09:57:52.341Z,61.20
2023-05-04T10:02:56.819Z,61.10
2023-05-04T10:08:01.783Z,61.20
2023-05-04T10:13:06.254Z,61.40
2023-05-04T10:18:40.265Z,61.30
2023-05-04T10:24:08.983Z,61.30
2023-05-04T10:29:24.889Z,61.40
2023-05-04T10:34:30.159Z,60.20
2023-05-04T10:39:35.707Z,59.10
2023-05-04T10:44:56.790Z,57.50
2023-05-04T10:50:16.198Z,53.50
2023-05-04T10:55:22.102Z,52.70
2023-05-04T11:00:43.537Z,53.20
2023-05-04T11:05:52.989Z,53.30
2023-05-04T11:11:07.425Z,53.50
2023-05-04T11:16:13.263Z,54.00
2023-05-04T11:21:44.187Z,54.40
2023-05-04T11:26:49.574Z,54.60
2023-05-04T11:31:56.996Z,55.10
2023-05-04T11:37:01.177Z,53.70
2023-05-04T11:42:09.508Z,52.70
2023-05-04T11:47:14.275Z,52.40
2023-05-04T11:52:24.659Z,50.10
2023-05-04T11:57:28.889Z,50.10
2023-05-04T12:02:34.259Z,50.80
2023-05-04T12:07:38.368Z,51.30
2023-05-04T12:12:42.567Z,50.90
2023-05-04T12:17:47.157Z,50.70
2023-05-04T12:22:51.475Z,50.10
2023-05-04T12:27:55.832Z,51.00
2023-05-04T12:33:00.540Z,50.30
2023-05-04T12:38:04.918Z,49.80
2023-05-04T12:43:09.299Z,49.70
2023-05-04T12:48:13.704Z,49.60
2023-05-04T12:53:18.945Z,50.80
2023-05-04T12:58:23.301Z,50.70
2023-05-04T13:03:27.618Z,51.00
2023-05-04T13:08:35.214Z,50.50
2023-05-04T13:13:41.848Z,50.20
2023-05-04T13:18:46.100Z,50.00
2023-05-04T13:23:51.300Z,49.90
2023-05-04T13:28:55.472Z,50.20
2023-05-04T13:33:59.627Z,49.80
2023-05-04T13:39:04.128Z,49.80
2023-05-04T13:44:08.394Z,49.60
2023-05-04T13:49:12.434Z,49.00
2023-05-04T13:54:16.773Z,49.00
2023-05-04T13:59:21.014Z,46.40
2023-05-04T14:04:25.043Z,45.50
2023-05-04T14:09:29.189Z,46.40
2023-05-04T14:14:33.616Z,46.60
2023-05-04T14:19:39.422Z,47.00
2023-05-04T14:24:43.724Z,46.90
2023-05-04T14:29:48.164Z,47.80
2023-05-04T14:34:52.516Z,48.50
2023-05-04T14:39:56.680Z,48.30
2023-05-04T14:45:00.889Z,48.60
2023-05-04T14:50:07.521Z,48.70
2023-05-04T14:55:14.789Z,49.00
2023-05-04T15:00:20.303Z,49.30
2023-05-04T15:05:26.138Z,49.00
2023-05-04T15:10:31.066Z,49.10
2023-05-04T15:15:40.054Z,49.40
2023-05-04T15:20:44.369Z,49.50
2023-05-04T15:25:48.493Z,49.80
2023-05-04T15:30:52.951Z,50.90
2023-05-04T15:35:56.969Z,54.60
2023-05-04T15:41:01.307Z,59.40
2023-05-04T15:46:05.351Z,59.70
2023-05-04T15:51:12.858Z,58.00
2023-05-04T15:56:17.397Z,61.50
2023-05-04T16:01:22.258Z,60.60
2023-05-04T16:06:31.071Z,60.00
2023-05-04T16:11:38.530Z,59.40
2023-05-04T16:16:43.146Z,58.50
2023-05-04T16:21:47.483Z,57.90
2023-05-04T16:26:53.442Z,57.60
2023-05-04T16:31:57.385Z,57.10
2023-05-04T16:37:04.381Z,57.30
2023-05-04T16:42:09.434Z,56.70
2023-05-04T16:47:13.788Z,56.30
2023-05-04T16:52:17.710Z,56.30
2023-05-04T16:57:22.690Z,55.90
2023-05-04T17:02:26.967Z,56.00
2023-05-04T17:07:31.247Z,56.10
2023-05-04T17:12:36.632Z,56.40
2023-05-04T17:17:42.117Z,55.70
2023-05-04T17:22:47.179Z,55.20
2023-05-04T17:27:51.371Z,55.30
2023-05-04T17:32:57.717Z,54.90
2023-05-04T17:38:01.790Z,54.70
2023-05-04T17:43:06.032Z,55.50
2023-05-04T17:48:10.514Z,55.30
2023-05-04T17:53:15.032Z,55.30
2023-05-04T17:58:19.769Z,55.20
2023-05-04T18:03:24.141Z,54.70
2023-05-04T18:08:28.466Z,54.30
2023-05-04T18:13:32.581Z,54.50
2023-05-04T18:18:36.831Z,54.30
2023-05-04T18:23:41.498Z,53.30
2023-05-04T18:28:47.602Z,53.50
2023-05-04T18:33:54.091Z,53.60
2023-05-04T18:39:00.992Z,53.40
2023-05-04T18:44:06.466Z,53.00
2023-05-04T18:49:11.688Z,53.30
2023-05-04T18:54:17.905Z,52.80
2023-05-04T18:59:23.187Z,53.00
2023-05-04T19:04:28.806Z,53.30
2023-05-04T19:09:33.647Z,52.90
2023-05-04T19:14:38.073Z,52.50
2023-05-04T19:19:42.476Z,52.40
2023-05-04T19:24:51.750Z,53.30
2023-05-04T19:29:56.609Z,53.60
2023-05-04T19:35:00.767Z,54.00
2023-05-04T19:40:06.374Z,53.80
2023-05-04T19:45:11.733Z,53.20
2023-05-04T19:50:16.839Z,52.30
2023-05-04T19:55:22.001Z,53.20
2023-05-04T20:00:26.327Z,53.30
2023-05-04T20:05:30.827Z,53.30
2023-05-04T20:10:35.224Z,53.70
2023-05-04T20:15:39.294Z,52.40
2023-05-04T20:20:43.901Z,52.30
2023-05-04T20:25:48.707Z,53.30
2023-05-04T20:30:53.181Z,54.60
2023-05-04T20:35:57.626Z,55.50
2023-05-04T20:41:11.685Z,54.60
2023-05-04T20:46:15.882Z,54.80
2023-05-04T20:51:20.266Z,54.90
2023-05-04T20:56:24.596Z,55.00
2023-05-04T21:01:30.282Z,55.10
2023-05-04T21:06:34.434Z,56.10
2023-05-04T21:11:38.432Z,55.60
2023-05-04T21:16:42.567Z,56.30
2023-05-04T21:21:46.716Z,57.00
2023-05-04T21:26:50.871Z,56.90
2023-05-04T21:31:56.262Z,56.10
2023-05-04T21:37:00.761Z,55.90
2023-05-04T21:42:05.113Z,56.50
2023-05-04T21:47:09.228Z,56.80
2023-05-04T21:52:13.582Z,56.50
2023-05-04T21:57:17.592Z,56.60
2023-05-04T22:02:21.834Z,56.80
2023-05-04T22:07:26.053Z,57.20
2023-05-04T22:12:30.369Z,57.20
2023-05-04T22:17:35.799Z,56.80
2023-05-04T22:22:39.916Z,56.90
2023-05-04T22:27:44.369Z,57.00
2023-05-04T22:32:48.340Z,56.50
2023-05-04T22:37:53.292Z,57.30
2023-05-04T22:42:57.472Z,56.50
2023-05-04T22:48:02.099Z,56.40
2023-05-04T22:53:07.830Z,56.40
2023-05-04T22:58:12.679Z,56.90
2023-05-04T23:03:17.148Z,56.80
2023-05-04T23:08:22.250Z,56.70
2023-05-04T23:13:26.894Z,58.20
2023-05-04T23:18:33.501Z,57.70
2023-05-04T23:23:37.713Z,57.40
2023-05-04T23:28:42.269Z,58.10
2023-05-04T23:33:46.522Z,57.50
2023-05-04T23:38:51.684Z,57.80
2023-05-04T23:43:59.179Z,57.70
2023-05-04T23:49:05.518Z,57.10
2023-05-04T23:54:09.923Z,57.90
2023-05-04T23:59:14.562Z,57.50
